sensor_id;sensor_type;location;lat;lon;timestamp;P1;durP1;ratioP1;P2;durP2;ratioP2
55760;SDS011;41679;51.440;-2.012;2022-08-19T00:01:16;4.25;;;0.60;;
55760;SDS011;41679;51.440;-2.012;2022-08-19T00:03:42;4.32;;;0.60;;
55760;SDS011;41679;51.440;-2.012;2022-08-19T00:06:09;5.65;;;0.70;;
55760;SDS011;41679;51.440;-2.012;2022-08-19T00:08:35;3.58;;;0.40;;
55760;SDS011;41679;51.440;-2.012;2022-08-19T00:11:00;3.75;;;0.50;;
55760;SDS011;41679;51.440;-2.012;2022-08-19T00:13:25;3.58;;;0.60;;
55760;SDS011;41679;51.440;-2.012;2022-08-19T00:15:55;2.72;;;0.55;;
55760;SDS011;41679;51.440;-2.012;2022-08-19T00:18:21;4.15;;;0.85;;
55760;SDS011;41679;51.440;-2.012;2022-08-19T00:20:46;6.60;;;0.40;;
55760;SDS011;41679;51.440;-2.012;2022-08-19T00:23:11;3.28;;;0.40;;
55760;SDS011;41679;51.440;-2.012;2022-08-19T00:25:38;1.98;;;0.30;;
55760;SDS011;41679;51.440;-2.012;2022-08-19T00:28:04;4.40;;;0.40;;
55760;SDS011;41679;51.440;-2.012;2022-08-19T00:30:30;5.05;;;0.50;;
55760;SDS011;41679;51.440;-2.012;2022-08-19T00:32:56;1.80;;;0.40;;
55760;SDS011;41679;51.440;-2.012;2022-08-19T00:35:22;2.40;;;0.40;;
55760;SDS011;41679;51.440;-2.012;2022-08-19T00:37:48;3.75;;;0.47;;
55760;SDS011;41679;51.440;-2.012;2022-08-19T00:40:15;3.22;;;0.40;;
55760;SDS011;41679;51.440;-2.012;2022-08-19T00:42:41;5.03;;;0.40;;
55760;SDS011;41679;51.440;-2.012;2022-08-19T00:45:20;3.72;;;0.50;;
55760;SDS011;41679;51.440;-2.012;2022-08-19T00:47:47;2.95;;;0.40;;
55760;SDS011;41679;51.440;-2.012;2022-08-19T00:50:13;2.08;;;0.32;;
55760;SDS011;41679;51.440;-2.012;2022-08-19T00:52:42;1.20;;;0.30;;
55760;SDS011;41679;51.440;-2.012;2022-08-19T00:55:12;3.65;;;0.40;;
55760;SDS011;41679;51.440;-2.012;2022-08-19T00:57:44;3.83;;;0.47;;
55760;SDS011;41679;51.440;-2.012;2022-08-19T01:00:14;3.15;;;0.38;;
55760;SDS011;41679;51.440;-2.012;2022-08-19T01:02:41;1.92;;;0.22;;
55760;SDS011;41679;51.440;-2.012;2022-08-19T01:05:14;0.70;;;0.17;;
55760;SDS011;41679;51.440;-2.012;2022-08-19T01:07:43;1.77;;;0.30;;
55760;SDS011;41679;51.440;-2.012;2022-08-19T01:10:11;1.98;;;0.30;;
55760;SDS011;41679;51.440;-2.012;2022-08-19T01:12:39;2.83;;;0.20;;
55760;SDS011;41679;51.440;-2.012;2022-08-19T01:15:06;3.20;;;0.40;;
55760;SDS011;41679;51.440;-2.012;2022-08-19T01:17:34;2.83;;;0.40;;
55760;SDS011;41679;51.440;-2.012;2022-08-19T01:20:02;3.22;;;0.80;;
55760;SDS011;41679;51.440;-2.012;2022-08-19T01:22:34;0.80;;;0.15;;
55760;SDS011;41679;51.440;-2.012;2022-08-19T01:25:04;1.08;;;0.22;;
55760;SDS011;41679;51.440;-2.012;2022-08-19T01:27:41;0.38;;;0.15;;
55760;SDS011;41679;51.440;-2.012;2022-08-19T01:30:09;1.00;;;0.20;;
55760;SDS011;41679;51.440;-2.012;2022-08-19T01:32:40;3.78;;;0.30;;
55760;SDS011;41679;51.440;-2.012;2022-08-19T01:35:06;1.83;;;0.20;;
55760;SDS011;41679;51.440;-2.012;2022-08-19T01:37:41;0.60;;;0.10;;
55760;SDS011;41679;51.440;-2.012;2022-08-19T01:40:19;2.60;;;0.10;;
55760;SDS011;41679;51.440;-2.012;2022-08-19T01:42:47;1.42;;;0.13;;
55760;SDS011;41679;51.440;-2.012;2022-08-19T01:45:14;1.00;;;0.10;;
55760;SDS011;41679;51.440;-2.012;2022-08-19T01:47:40;2.45;;;0.20;;
55760;SDS011;41679;51.440;-2.012;2022-08-19T01:50:06;2.88;;;0.20;;
55760;SDS011;41679;51.440;-2.012;2022-08-19T01:52:37;2.47;;;0.20;;
55760;SDS011;41679;51.440;-2.012;2022-08-19T01:55:05;4.68;;;0.50;;
55760;SDS011;41679;51.440;-2.012;2022-08-19T01:57:33;1.02;;;0.10;;
55760;SDS011;41679;51.440;-2.012;2022-08-19T01:59:58;4.25;;;0.30;;
55760;SDS011;41679;51.440;-2.012;2022-08-19T02:02:25;4.28;;;0.30;;
55760;SDS011;41679;51.440;-2.012;2022-08-19T02:04:50;3.28;;;0.32;;
55760;SDS011;41679;51.440;-2.012;2022-08-19T02:07:19;4.97;;;1.38;;
55760;SDS011;41679;51.440;-2.012;2022-08-19T02:09:47;7.97;;;0.47;;
55760;SDS011;41679;51.440;-2.012;2022-08-19T02:12:13;4.45;;;0.22;;
55760;SDS011;41679;51.440;-2.012;2022-08-19T02:14:39;6.65;;;0.50;;
55760;SDS011;41679;51.440;-2.012;2022-08-19T02:17:05;3.78;;;0.30;;
55760;SDS011;41679;51.440;-2.012;2022-08-19T02:19:31;3.95;;;0.28;;
55760;SDS011;41679;51.440;-2.012;2022-08-19T02:22:00;5.25;;;0.50;;
55760;SDS011;41679;51.440;-2.012;2022-08-19T02:24:26;5.28;;;0.40;;
55760;SDS011;41679;51.440;-2.012;2022-08-19T02:29:38;7.03;;;0.40;;
55760;SDS011;41679;51.440;-2.012;2022-08-19T02:32:04;7.38;;;0.50;;
55760;SDS011;41679;51.440;-2.012;2022-08-19T02:34:29;4.32;;;0.30;;
55760;SDS011;41679;51.440;-2.012;2022-08-19T02:36:56;5.55;;;0.35;;
55760;SDS011;41679;51.440;-2.012;2022-08-19T02:39:21;3.38;;;0.30;;
55760;SDS011;41679;51.440;-2.012;2022-08-19T02:41:47;4.57;;;0.40;;
55760;SDS011;41679;51.440;-2.012;2022-08-19T02:44:12;4.75;;;0.38;;
55760;SDS011;41679;51.440;-2.012;2022-08-19T02:46:37;2.75;;;0.28;;
55760;SDS011;41679;51.440;-2.012;2022-08-19T02:49:05;6.68;;;0.70;;
55760;SDS011;41679;51.440;-2.012;2022-08-19T02:51:34;5.47;;;0.60;;
55760;SDS011;41679;51.440;-2.012;2022-08-19T02:54:01;5.53;;;0.52;;
55760;SDS011;41679;51.440;-2.012;2022-08-19T02:56:30;5.00;;;0.63;;
55760;SDS011;41679;51.440;-2.012;2022-08-19T02:58:56;3.97;;;0.50;;
55760;SDS011;41679;51.440;-2.012;2022-08-19T03:01:26;7.15;;;0.90;;
55760;SDS011;41679;51.440;-2.012;2022-08-19T03:03:54;5.78;;;0.57;;
55760;SDS011;41679;51.440;-2.012;2022-08-19T03:06:20;8.85;;;0.93;;
55760;SDS011;41679;51.440;-2.012;2022-08-19T03:08:47;7.68;;;0.75;;
55760;SDS011;41679;51.440;-2.012;2022-08-19T03:11:21;6.60;;;0.60;;
55760;SDS011;41679;51.440;-2.012;2022-08-19T03:13:51;9.05;;;1.98;;
55760;SDS011;41679;51.440;-2.012;2022-08-19T03:16:20;6.60;;;0.65;;
55760;SDS011;41679;51.440;-2.012;2022-08-19T03:18:47;8.73;;;0.60;;
55760;SDS011;41679;51.440;-2.012;2022-08-19T03:21:17;8.18;;;1.33;;
55760;SDS011;41679;51.440;-2.012;2022-08-19T03:29:03;6.30;;;0.73;;
55760;SDS011;41679;51.440;-2.012;2022-08-19T03:31:29;7.35;;;0.77;;
55760;SDS011;41679;51.440;-2.012;2022-08-19T03:33:56;6.45;;;1.00;;
55760;SDS011;41679;51.440;-2.012;2022-08-19T03:36:24;10.65;;;1.90;;
55760;SDS011;41679;51.440;-2.012;2022-08-19T03:38:53;8.73;;;0.73;;
55760;SDS011;41679;51.440;-2.012;2022-08-19T03:41:23;8.65;;;1.42;;
55760;SDS011;41679;51.440;-2.012;2022-08-19T03:43:50;14.32;;;1.75;;
55760;SDS011;41679;51.440;-2.012;2022-08-19T03:46:18;7.88;;;0.80;;
55760;SDS011;41679;51.440;-2.012;2022-08-19T03:48:47;8.75;;;0.80;;
55760;SDS011;41679;51.440;-2.012;2022-08-19T03:51:18;7.15;;;0.93;;
55760;SDS011;41679;51.440;-2.012;2022-08-19T03:53:56;11.77;;;0.90;;
55760;SDS011;41679;51.440;-2.012;2022-08-19T03:59:11;8.25;;;0.98;;
55760;SDS011;41679;51.440;-2.012;2022-08-19T04:01:38;10.75;;;0.77;;
55760;SDS011;41679;51.440;-2.012;2022-08-19T04:04:04;11.18;;;0.82;;
55760;SDS011;41679;51.440;-2.012;2022-08-19T04:06:33;10.95;;;1.17;;
55760;SDS011;41679;51.440;-2.012;2022-08-19T04:09:01;17.55;;;1.52;;
55760;SDS011;41679;51.440;-2.012;2022-08-19T04:11:29;15.05;;;1.17;;
55760;SDS011;41679;51.440;-2.012;2022-08-19T04:14:27;11.57;;;1.90;;
55760;SDS011;41679;51.440;-2.012;2022-08-19T04:16:56;13.45;;;1.40;;
55760;SDS011;41679;51.440;-2.012;2022-08-19T04:19:22;13.85;;;1.90;;
55760;SDS011;41679;51.440;-2.012;2022-08-19T04:21:49;14.48;;;1.48;;
55760;SDS011;41679;51.440;-2.012;2022-08-19T04:24:17;13.57;;;2.17;;
55760;SDS011;41679;51.440;-2.012;2022-08-19T04:26:44;11.65;;;1.20;;
55760;SDS011;41679;51.440;-2.012;2022-08-19T04:29:11;18.02;;;1.73;;
55760;SDS011;41679;51.440;-2.012;2022-08-19T04:31:40;12.93;;;1.13;;
55760;SDS011;41679;51.440;-2.012;2022-08-19T04:34:10;14.25;;;1.52;;
55760;SDS011;41679;51.440;-2.012;2022-08-19T04:36:38;15.63;;;1.50;;
55760;SDS011;41679;51.440;-2.012;2022-08-19T04:39:09;14.50;;;1.40;;
55760;SDS011;41679;51.440;-2.012;2022-08-19T04:41:39;13.18;;;1.48;;
55760;SDS011;41679;51.440;-2.012;2022-08-19T04:44:23;12.73;;;1.27;;
55760;SDS011;41679;51.440;-2.012;2022-08-19T04:46:49;15.38;;;1.73;;
55760;SDS011;41679;51.440;-2.012;2022-08-19T04:49:16;16.48;;;1.88;;
55760;SDS011;41679;51.440;-2.012;2022-08-19T04:51:43;15.63;;;1.60;;
55760;SDS011;41679;51.440;-2.012;2022-08-19T04:54:21;15.68;;;1.55;;
55760;SDS011;41679;51.440;-2.012;2022-08-19T04:56:51;19.73;;;2.67;;
55760;SDS011;41679;51.440;-2.012;2022-08-19T04:59:23;16.45;;;1.38;;
55760;SDS011;41679;51.440;-2.012;2022-08-19T05:01:52;14.68;;;1.35;;
55760;SDS011;41679;51.440;-2.012;2022-08-19T05:04:18;15.93;;;1.45;;
55760;SDS011;41679;51.440;-2.012;2022-08-19T05:06:46;17.83;;;1.67;;
55760;SDS011;41679;51.440;-2.012;2022-08-19T05:09:13;13.10;;;1.52;;
55760;SDS011;41679;51.440;-2.012;2022-08-19T05:11:40;20.42;;;2.05;;
55760;SDS011;41679;51.440;-2.012;2022-08-19T05:14:06;18.58;;;2.10;;
55760;SDS011;41679;51.440;-2.012;2022-08-19T05:16:33;13.80;;;1.50;;
55760;SDS011;41679;51.440;-2.012;2022-08-19T05:19:00;15.23;;;1.70;;
55760;SDS011;41679;51.440;-2.012;2022-08-19T05:21:44;14.45;;;1.60;;
55760;SDS011;41679;51.440;-2.012;2022-08-19T05:24:29;17.27;;;1.55;;
55760;SDS011;41679;51.440;-2.012;2022-08-19T05:26:55;18.38;;;1.70;;
55760;SDS011;41679;51.440;-2.012;2022-08-19T05:29:25;22.23;;;2.17;;
55760;SDS011;41679;51.440;-2.012;2022-08-19T05:31:52;22.67;;;2.28;;
55760;SDS011;41679;51.440;-2.012;2022-08-19T05:34:20;19.33;;;2.40;;
55760;SDS011;41679;51.440;-2.012;2022-08-19T05:36:50;23.92;;;2.28;;
55760;SDS011;41679;51.440;-2.012;2022-08-19T05:39:20;22.10;;;2.28;;
55760;SDS011;41679;51.440;-2.012;2022-08-19T05:41:47;27.67;;;3.38;;
55760;SDS011;41679;51.440;-2.012;2022-08-19T05:44:16;14.82;;;2.03;;
55760;SDS011;41679;51.440;-2.012;2022-08-19T05:46:45;20.92;;;3.13;;
55760;SDS011;41679;51.440;-2.012;2022-08-19T05:49:12;23.90;;;2.58;;
55760;SDS011;41679;51.440;-2.012;2022-08-19T05:51:38;23.55;;;1.80;;
55760;SDS011;41679;51.440;-2.012;2022-08-19T05:54:05;20.52;;;2.40;;
55760;SDS011;41679;51.440;-2.012;2022-08-19T05:59:03;20.90;;;2.70;;
55760;SDS011;41679;51.440;-2.012;2022-08-19T06:01:35;15.43;;;2.30;;
55760;SDS011;41679;51.440;-2.012;2022-08-19T06:04:02;22.65;;;3.67;;
55760;SDS011;41679;51.440;-2.012;2022-08-19T06:06:29;22.90;;;3.25;;
55760;SDS011;41679;51.440;-2.012;2022-08-19T06:08:55;20.52;;;2.20;;
55760;SDS011;41679;51.440;-2.012;2022-08-19T06:13:47;29.77;;;4.57;;
55760;SDS011;41679;51.440;-2.012;2022-08-19T06:16:15;25.75;;;2.58;;
55760;SDS011;41679;51.440;-2.012;2022-08-19T06:18:45;23.65;;;2.53;;
55760;SDS011;41679;51.440;-2.012;2022-08-19T06:21:11;19.80;;;2.70;;
55760;SDS011;41679;51.440;-2.012;2022-08-19T06:23:37;23.98;;;2.47;;
55760;SDS011;41679;51.440;-2.012;2022-08-19T06:26:04;23.70;;;2.90;;
55760;SDS011;41679;51.440;-2.012;2022-08-19T06:28:29;22.60;;;2.20;;
55760;SDS011;41679;51.440;-2.012;2022-08-19T06:30:54;18.30;;;2.10;;
55760;SDS011;41679;51.440;-2.012;2022-08-19T06:33:20;19.98;;;2.15;;
55760;SDS011;41679;51.440;-2.012;2022-08-19T06:35:45;19.70;;;2.70;;
55760;SDS011;41679;51.440;-2.012;2022-08-19T06:38:11;22.65;;;2.80;;
55760;SDS011;41679;51.440;-2.012;2022-08-19T06:40:37;21.33;;;2.72;;
55760;SDS011;41679;51.440;-2.012;2022-08-19T06:43:03;22.55;;;3.85;;
55760;SDS011;41679;51.440;-2.012;2022-08-19T06:45:31;20.58;;;2.65;;
55760;SDS011;41679;51.440;-2.012;2022-08-19T06:47:56;18.20;;;2.60;;
55760;SDS011;41679;51.440;-2.012;2022-08-19T06:50:22;18.38;;;2.47;;
55760;SDS011;41679;51.440;-2.012;2022-08-19T06:52:48;20.63;;;2.15;;
55760;SDS011;41679;51.440;-2.012;2022-08-19T06:55:15;21.98;;;3.20;;
55760;SDS011;41679;51.440;-2.012;2022-08-19T06:57:41;17.50;;;1.95;;
55760;SDS011;41679;51.440;-2.012;2022-08-19T07:00:07;17.77;;;2.17;;
55760;SDS011;41679;51.440;-2.012;2022-08-19T07:02:40;17.77;;;2.38;;
55760;SDS011;41679;51.440;-2.012;2022-08-19T07:05:07;17.00;;;1.92;;
55760;SDS011;41679;51.440;-2.012;2022-08-19T07:07:32;20.25;;;2.30;;
55760;SDS011;41679;51.440;-2.012;2022-08-19T07:09:58;16.85;;;1.90;;
55760;SDS011;41679;51.440;-2.012;2022-08-19T07:12:23;17.20;;;2.08;;
55760;SDS011;41679;51.440;-2.012;2022-08-19T07:14:49;19.45;;;1.65;;
55760;SDS011;41679;51.440;-2.012;2022-08-19T07:17:15;16.27;;;2.00;;
55760;SDS011;41679;51.440;-2.012;2022-08-19T07:19:41;22.00;;;2.17;;
55760;SDS011;41679;51.440;-2.012;2022-08-19T07:22:07;22.45;;;1.88;;
55760;SDS011;41679;51.440;-2.012;2022-08-19T07:24:33;16.85;;;1.58;;
55760;SDS011;41679;51.440;-2.012;2022-08-19T07:27:01;18.13;;;1.30;;
55760;SDS011;41679;51.440;-2.012;2022-08-19T07:29:29;17.35;;;1.98;;
55760;SDS011;41679;51.440;-2.012;2022-08-19T07:31:58;17.52;;;2.20;;
55760;SDS011;41679;51.440;-2.012;2022-08-19T07:34:25;17.25;;;1.75;;
55760;SDS011;41679;51.440;-2.012;2022-08-19T07:36:53;13.93;;;1.48;;
55760;SDS011;41679;51.440;-2.012;2022-08-19T07:39:21;17.23;;;1.63;;
55760;SDS011;41679;51.440;-2.012;2022-08-19T07:41:51;16.27;;;1.58;;
55760;SDS011;41679;51.440;-2.012;2022-08-19T07:44:17;16.77;;;1.50;;
55760;SDS011;41679;51.440;-2.012;2022-08-19T07:46:46;14.80;;;1.52;;
55760;SDS011;41679;51.440;-2.012;2022-08-19T07:49:14;17.63;;;2.17;;
55760;SDS011;41679;51.440;-2.012;2022-08-19T07:51:54;12.95;;;1.30;;
55760;SDS011;41679;51.440;-2.012;2022-08-19T07:54:30;16.85;;;1.65;;
55760;SDS011;41679;51.440;-2.012;2022-08-19T07:57:00;16.05;;;1.50;;
55760;SDS011;41679;51.440;-2.012;2022-08-19T07:59:26;13.68;;;1.38;;
55760;SDS011;41679;51.440;-2.012;2022-08-19T08:01:53;13.77;;;1.48;;
55760;SDS011;41679;51.440;-2.012;2022-08-19T08:04:19;17.15;;;1.30;;
55760;SDS011;41679;51.440;-2.012;2022-08-19T08:07:06;16.98;;;1.85;;
55760;SDS011;41679;51.440;-2.012;2022-08-19T08:09:52;13.70;;;1.50;;
55760;SDS011;41679;51.440;-2.012;2022-08-19T08:12:50;14.98;;;1.35;;
55760;SDS011;41679;51.440;-2.012;2022-08-19T08:15:15;14.52;;;1.10;;
55760;SDS011;41679;51.440;-2.012;2022-08-19T08:17:41;16.35;;;1.75;;
55760;SDS011;41679;51.440;-2.012;2022-08-19T08:20:08;17.65;;;1.42;;
55760;SDS011;41679;51.440;-2.012;2022-08-19T08:22:35;14.45;;;1.73;;
55760;SDS011;41679;51.440;-2.012;2022-08-19T08:28:22;21.08;;;1.25;;
55760;SDS011;41679;51.440;-2.012;2022-08-19T08:30:49;15.40;;;1.80;;
55760;SDS011;41679;51.440;-2.012;2022-08-19T08:33:18;17.33;;;1.83;;
55760;SDS011;41679;51.440;-2.012;2022-08-19T08:35:48;16.20;;;1.48;;
55760;SDS011;41679;51.440;-2.012;2022-08-19T08:38:14;16.83;;;1.88;;
55760;SDS011;41679;51.440;-2.012;2022-08-19T08:43:27;17.00;;;1.48;;
55760;SDS011;41679;51.440;-2.012;2022-08-19T08:46:06;17.30;;;1.55;;
55760;SDS011;41679;51.440;-2.012;2022-08-19T08:51:00;15.48;;;1.40;;
55760;SDS011;41679;51.440;-2.012;2022-08-19T08:53:29;14.57;;;1.65;;
55760;SDS011;41679;51.440;-2.012;2022-08-19T08:55:57;16.23;;;1.70;;
55760;SDS011;41679;51.440;-2.012;2022-08-19T08:58:30;16.75;;;1.95;;
55760;SDS011;41679;51.440;-2.012;2022-08-19T09:01:08;13.85;;;1.52;;
55760;SDS011;41679;51.440;-2.012;2022-08-19T09:03:36;15.60;;;1.30;;
55760;SDS011;41679;51.440;-2.012;2022-08-19T09:06:07;14.73;;;1.48;;
55760;SDS011;41679;51.440;-2.012;2022-08-19T09:11:37;22.13;;;2.00;;
55760;SDS011;41679;51.440;-2.012;2022-08-19T09:14:29;20.27;;;2.38;;
55760;SDS011;41679;51.440;-2.012;2022-08-19T09:17:06;14.98;;;1.45;;
55760;SDS011;41679;51.440;-2.012;2022-08-19T09:19:34;18.58;;;1.40;;
55760;SDS011;41679;51.440;-2.012;2022-08-19T09:22:01;14.60;;;1.45;;
55760;SDS011;41679;51.440;-2.012;2022-08-19T09:24:27;14.38;;;1.20;;
55760;SDS011;41679;51.440;-2.012;2022-08-19T09:26:52;13.15;;;1.88;;
55760;SDS011;41679;51.440;-2.012;2022-08-19T09:29:18;16.13;;;1.45;;
55760;SDS011;41679;51.440;-2.012;2022-08-19T09:31:43;16.00;;;1.58;;
55760;SDS011;41679;51.440;-2.012;2022-08-19T09:34:09;19.98;;;2.10;;
55760;SDS011;41679;51.440;-2.012;2022-08-19T09:36:34;20.75;;;1.67;;
55760;SDS011;41679;51.440;-2.012;2022-08-19T09:39:04;16.20;;;1.67;;
55760;SDS011;41679;51.440;-2.012;2022-08-19T09:41:30;13.77;;;1.27;;
55760;SDS011;41679;51.440;-2.012;2022-08-19T09:43:57;19.50;;;1.40;;
55760;SDS011;41679;51.440;-2.012;2022-08-19T09:46:25;21.58;;;1.63;;
55760;SDS011;41679;51.440;-2.012;2022-08-19T09:48:52;20.27;;;1.63;;
55760;SDS011;41679;51.440;-2.012;2022-08-19T09:51:20;14.88;;;1.30;;
55760;SDS011;41679;51.440;-2.012;2022-08-19T09:53:49;15.48;;;1.73;;
55760;SDS011;41679;51.440;-2.012;2022-08-19T09:56:17;16.90;;;1.60;;
55760;SDS011;41679;51.440;-2.012;2022-08-19T09:58:43;18.00;;;1.92;;
55760;SDS011;41679;51.440;-2.012;2022-08-19T10:01:14;17.45;;;1.85;;
55760;SDS011;41679;51.440;-2.012;2022-08-19T10:03:46;16.50;;;1.73;;
55760;SDS011;41679;51.440;-2.012;2022-08-19T10:06:14;15.55;;;1.35;;
55760;SDS011;41679;51.440;-2.012;2022-08-19T10:08:40;16.45;;;1.88;;
55760;SDS011;41679;51.440;-2.012;2022-08-19T10:11:06;19.85;;;1.38;;
55760;SDS011;41679;51.440;-2.012;2022-08-19T10:13:31;16.67;;;1.80;;
55760;SDS011;41679;51.440;-2.012;2022-08-19T10:16:07;16.33;;;1.25;;
55760;SDS011;41679;51.440;-2.012;2022-08-19T10:18:38;16.50;;;1.25;;
55760;SDS011;41679;51.440;-2.012;2022-08-19T10:21:14;22.02;;;2.25;;
55760;SDS011;41679;51.440;-2.012;2022-08-19T10:23:44;15.77;;;1.88;;
55760;SDS011;41679;51.440;-2.012;2022-08-19T10:26:14;20.77;;;1.90;;
55760;SDS011;41679;51.440;-2.012;2022-08-19T10:28:42;13.43;;;1.20;;
55760;SDS011;41679;51.440;-2.012;2022-08-19T10:31:12;16.15;;;2.38;;
55760;SDS011;41679;51.440;-2.012;2022-08-19T10:33:59;12.85;;;1.02;;
55760;SDS011;41679;51.440;-2.012;2022-08-19T10:36:28;15.65;;;1.73;;
55760;SDS011;41679;51.440;-2.012;2022-08-19T10:38:57;15.57;;;1.90;;
55760;SDS011;41679;51.440;-2.012;2022-08-19T10:41:27;16.98;;;1.55;;
55760;SDS011;41679;51.440;-2.012;2022-08-19T10:43:55;18.40;;;2.08;;
55760;SDS011;41679;51.440;-2.012;2022-08-19T10:46:25;16.95;;;1.42;;
55760;SDS011;41679;51.440;-2.012;2022-08-19T10:48:51;20.23;;;2.05;;
55760;SDS011;41679;51.440;-2.012;2022-08-19T10:51:18;18.67;;;1.83;;
55760;SDS011;41679;51.440;-2.012;2022-08-19T10:54:03;14.38;;;1.27;;
55760;SDS011;41679;51.440;-2.012;2022-08-19T10:56:29;17.27;;;1.92;;
55760;SDS011;41679;51.440;-2.012;2022-08-19T10:59:15;14.88;;;1.27;;
55760;SDS011;41679;51.440;-2.012;2022-08-19T11:01:52;12.20;;;1.40;;
55760;SDS011;41679;51.440;-2.012;2022-08-19T11:04:19;16.92;;;2.13;;
55760;SDS011;41679;51.440;-2.012;2022-08-19T11:06:46;16.60;;;1.40;;
55760;SDS011;41679;51.440;-2.012;2022-08-19T11:09:37;12.23;;;1.20;;
55760;SDS011;41679;51.440;-2.012;2022-08-19T11:12:05;17.48;;;1.63;;
55760;SDS011;41679;51.440;-2.012;2022-08-19T11:14:33;14.05;;;1.92;;
55760;SDS011;41679;51.440;-2.012;2022-08-19T11:16:59;17.48;;;1.60;;
55760;SDS011;41679;51.440;-2.012;2022-08-19T11:19:25;17.15;;;1.27;;
55760;SDS011;41679;51.440;-2.012;2022-08-19T11:21:51;17.95;;;1.70;;
55760;SDS011;41679;51.440;-2.012;2022-08-19T11:24:22;16.92;;;1.63;;
55760;SDS011;41679;51.440;-2.012;2022-08-19T11:26:49;19.25;;;1.63;;
55760;SDS011;41679;51.440;-2.012;2022-08-19T11:29:18;17.27;;;2.03;;
55760;SDS011;41679;51.440;-2.012;2022-08-19T11:31:46;16.63;;;1.55;;
55760;SDS011;41679;51.440;-2.012;2022-08-19T11:34:15;24.05;;;2.38;;
55760;SDS011;41679;51.440;-2.012;2022-08-19T11:36:44;14.57;;;1.55;;
55760;SDS011;41679;51.440;-2.012;2022-08-19T11:39:13;12.35;;;1.23;;
55760;SDS011;41679;51.440;-2.012;2022-08-19T11:41:41;17.67;;;2.17;;
55760;SDS011;41679;51.440;-2.012;2022-08-19T11:44:06;17.42;;;1.50;;
55760;SDS011;41679;51.440;-2.012;2022-08-19T11:46:33;18.83;;;1.42;;
55760;SDS011;41679;51.440;-2.012;2022-08-19T11:48:59;19.08;;;2.03;;
55760;SDS011;41679;51.440;-2.012;2022-08-19T11:51:26;18.50;;;1.58;;
55760;SDS011;41679;51.440;-2.012;2022-08-19T11:53:53;17.00;;;1.67;;
55760;SDS011;41679;51.440;-2.012;2022-08-19T11:56:20;15.35;;;1.65;;
55760;SDS011;41679;51.440;-2.012;2022-08-19T11:58:47;18.10;;;2.28;;
55760;SDS011;41679;51.440;-2.012;2022-08-19T12:01:14;20.65;;;1.70;;
55760;SDS011;41679;51.440;-2.012;2022-08-19T12:03:42;17.70;;;1.58;;
55760;SDS011;41679;51.440;-2.012;2022-08-19T12:06:11;22.65;;;1.85;;
55760;SDS011;41679;51.440;-2.012;2022-08-19T12:08:39;16.33;;;2.30;;
55760;SDS011;41679;51.440;-2.012;2022-08-19T12:11:05;19.92;;;2.40;;
55760;SDS011;41679;51.440;-2.012;2022-08-19T12:13:33;16.50;;;1.50;;
55760;SDS011;41679;51.440;-2.012;2022-08-19T12:15:59;15.93;;;1.95;;
55760;SDS011;41679;51.440;-2.012;2022-08-19T12:18:25;18.02;;;1.67;;
55760;SDS011;41679;51.440;-2.012;2022-08-19T12:20:52;18.75;;;1.77;;
55760;SDS011;41679;51.440;-2.012;2022-08-19T12:23:19;19.33;;;2.00;;
55760;SDS011;41679;51.440;-2.012;2022-08-19T12:25:45;15.55;;;1.48;;
55760;SDS011;41679;51.440;-2.012;2022-08-19T12:28:17;16.50;;;2.35;;
55760;SDS011;41679;51.440;-2.012;2022-08-19T12:30:44;16.10;;;1.75;;
55760;SDS011;41679;51.440;-2.012;2022-08-19T12:33:09;16.63;;;1.70;;
55760;SDS011;41679;51.440;-2.012;2022-08-19T12:35:34;21.58;;;1.77;;
55760;SDS011;41679;51.440;-2.012;2022-08-19T12:38:01;17.13;;;1.80;;
55760;SDS011;41679;51.440;-2.012;2022-08-19T12:40:28;22.30;;;2.00;;
55760;SDS011;41679;51.440;-2.012;2022-08-19T12:42:53;17.20;;;1.83;;
55760;SDS011;41679;51.440;-2.012;2022-08-19T12:45:19;15.35;;;1.45;;
55760;SDS011;41679;51.440;-2.012;2022-08-19T12:47:45;19.52;;;2.15;;
55760;SDS011;41679;51.440;-2.012;2022-08-19T12:50:11;20.30;;;2.53;;
55760;SDS011;41679;51.440;-2.012;2022-08-19T12:52:37;16.98;;;2.22;;
55760;SDS011;41679;51.440;-2.012;2022-08-19T12:55:04;19.13;;;2.03;;
55760;SDS011;41679;51.440;-2.012;2022-08-19T12:57:31;20.10;;;2.67;;
55760;SDS011;41679;51.440;-2.012;2022-08-19T13:00:07;17.42;;;1.60;;
55760;SDS011;41679;51.440;-2.012;2022-08-19T13:02:37;18.33;;;2.10;;
55760;SDS011;41679;51.440;-2.012;2022-08-19T13:05:04;18.40;;;1.70;;
55760;SDS011;41679;51.440;-2.012;2022-08-19T13:07:33;18.42;;;1.70;;
55760;SDS011;41679;51.440;-2.012;2022-08-19T13:09:58;16.23;;;1.65;;
55760;SDS011;41679;51.440;-2.012;2022-08-19T13:12:24;17.20;;;1.80;;
55760;SDS011;41679;51.440;-2.012;2022-08-19T13:14:51;19.85;;;1.70;;
55760;SDS011;41679;51.440;-2.012;2022-08-19T13:17:19;15.80;;;1.88;;
55760;SDS011;41679;51.440;-2.012;2022-08-19T13:19:45;18.02;;;2.15;;
55760;SDS011;41679;51.440;-2.012;2022-08-19T13:22:10;21.83;;;1.67;;
55760;SDS011;41679;51.440;-2.012;2022-08-19T13:24:37;16.95;;;1.60;;
55760;SDS011;41679;51.440;-2.012;2022-08-19T13:27:02;15.95;;;1.63;;
55760;SDS011;41679;51.440;-2.012;2022-08-19T13:29:28;15.52;;;1.45;;
55760;SDS011;41679;51.440;-2.012;2022-08-19T13:32:17;15.85;;;1.52;;
55760;SDS011;41679;51.440;-2.012;2022-08-19T13:35:01;16.33;;;1.80;;
55760;SDS011;41679;51.440;-2.012;2022-08-19T13:37:27;16.08;;;1.35;;
55760;SDS011;41679;51.440;-2.012;2022-08-19T13:40:13;14.88;;;1.45;;
55760;SDS011;41679;51.440;-2.012;2022-08-19T13:42:43;16.98;;;1.80;;
55760;SDS011;41679;51.440;-2.012;2022-08-19T13:45:11;16.42;;;1.58;;
55760;SDS011;41679;51.440;-2.012;2022-08-19T13:47:37;18.63;;;1.95;;
55760;SDS011;41679;51.440;-2.012;2022-08-19T13:50:07;16.83;;;1.30;;
55760;SDS011;41679;51.440;-2.012;2022-08-19T13:52:41;17.13;;;1.50;;
55760;SDS011;41679;51.440;-2.012;2022-08-19T13:55:08;17.13;;;1.83;;
55760;SDS011;41679;51.440;-2.012;2022-08-19T13:57:34;17.63;;;1.58;;
55760;SDS011;41679;51.440;-2.012;2022-08-19T14:00:02;16.20;;;1.77;;
55760;SDS011;41679;51.440;-2.012;2022-08-19T14:02:28;13.73;;;1.70;;
55760;SDS011;41679;51.440;-2.012;2022-08-19T14:04:54;13.02;;;1.17;;
55760;SDS011;41679;51.440;-2.012;2022-08-19T14:07:19;17.85;;;2.05;;
55760;SDS011;41679;51.440;-2.012;2022-08-19T14:09:45;16.70;;;1.83;;
55760;SDS011;41679;51.440;-2.012;2022-08-19T14:12:10;18.50;;;1.75;;
55760;SDS011;41679;51.440;-2.012;2022-08-19T14:14:36;15.80;;;1.40;;
55760;SDS011;41679;51.440;-2.012;2022-08-19T14:17:07;17.77;;;2.25;;
55760;SDS011;41679;51.440;-2.012;2022-08-19T14:19:34;15.93;;;1.70;;
55760;SDS011;41679;51.440;-2.012;2022-08-19T14:22:00;19.83;;;2.25;;
55760;SDS011;41679;51.440;-2.012;2022-08-19T14:24:26;14.23;;;1.20;;
55760;SDS011;41679;51.440;-2.012;2022-08-19T14:26:52;19.58;;;1.92;;
55760;SDS011;41679;51.440;-2.012;2022-08-19T14:29:18;17.92;;;1.77;;
55760;SDS011;41679;51.440;-2.012;2022-08-19T14:31:43;14.75;;;2.03;;
55760;SDS011;41679;51.440;-2.012;2022-08-19T14:34:09;18.92;;;1.65;;
55760;SDS011;41679;51.440;-2.012;2022-08-19T14:36:36;22.88;;;2.28;;
55760;SDS011;41679;51.440;-2.012;2022-08-19T14:39:02;16.95;;;2.00;;
55760;SDS011;41679;51.440;-2.012;2022-08-19T14:41:28;12.52;;;1.33;;
55760;SDS011;41679;51.440;-2.012;2022-08-19T14:43:55;15.07;;;1.80;;
55760;SDS011;41679;51.440;-2.012;2022-08-19T14:46:22;14.57;;;1.20;;
55760;SDS011;41679;51.440;-2.012;2022-08-19T14:48:50;14.98;;;1.55;;
55760;SDS011;41679;51.440;-2.012;2022-08-19T14:51:16;16.27;;;1.73;;
55760;SDS011;41679;51.440;-2.012;2022-08-19T14:53:42;14.05;;;1.30;;
55760;SDS011;41679;51.440;-2.012;2022-08-19T14:56:09;17.15;;;1.30;;
55760;SDS011;41679;51.440;-2.012;2022-08-19T14:58:36;16.92;;;1.33;;
55760;SDS011;41679;51.440;-2.012;2022-08-19T15:01:02;14.60;;;1.52;;